sensor_id;sensor_type;location;lat;lon;timestamp;temperature;humidity
7234;DHT22;3658;47.992;10.158;2022-09-14T00:00:45;21.20;62.90
7234;DHT22;3658;47.992;10.158;2022-09-14T00:03:14;21.20;62.90
7234;DHT22;3658;47.992;10.158;2022-09-14T00:05:41;21.20;62.80
7234;DHT22;3658;47.992;10.158;2022-09-14T00:08:08;21.20;62.70
7234;DHT22;3658;47.992;10.158;2022-09-14T00:10:37;21.20;62.70
7234;DHT22;3658;47.992;10.158;2022-09-14T00:13:04;21.20;62.60
7234;DHT22;3658;47.992;10.158;2022-09-14T00:15:34;21.20;62.60
7234;DHT22;3658;47.992;10.158;2022-09-14T00:18:01;21.20;62.60
7234;DHT22;3658;47.992;10.158;2022-09-14T00:20:30;21.20;62.60
7234;DHT22;3658;47.992;10.158;2022-09-14T00:22:57;21.20;62.50
7234;DHT22;3658;47.992;10.158;2022-09-14T00:25:24;21.20;62.50
7234;DHT22;3658;47.992;10.158;2022-09-14T00:27:51;21.20;62.50
7234;DHT22;3658;47.992;10.158;2022-09-14T00:30:19;21.20;62.40
7234;DHT22;3658;47.992;10.158;2022-09-14T00:32:46;21.20;62.40
7234;DHT22;3658;47.992;10.158;2022-09-14T00:35:13;21.20;62.40
7234;DHT22;3658;47.992;10.158;2022-09-14T00:37:42;21.20;62.30
7234;DHT22;3658;47.992;10.158;2022-09-14T00:40:09;21.20;62.30
7234;DHT22;3658;47.992;10.158;2022-09-14T00:42:37;21.20;62.30
7234;DHT22;3658;47.992;10.158;2022-09-14T00:45:09;21.20;62.30
7234;DHT22;3658;47.992;10.158;2022-09-14T00:47:39;21.20;62.20
7234;DHT22;3658;47.992;10.158;2022-09-14T00:50:08;21.20;62.20
7234;DHT22;3658;47.992;10.158;2022-09-14T00:52:37;21.20;62.20
7234;DHT22;3658;47.992;10.158;2022-09-14T00:55:10;21.20;62.20
7234;DHT22;3658;47.992;10.158;2022-09-14T00:57:41;21.20;62.20
7234;DHT22;3658;47.992;10.158;2022-09-14T01:00:11;21.20;62.10
7234;DHT22;3658;47.992;10.158;2022-09-14T01:02:39;21.20;62.10
7234;DHT22;3658;47.992;10.158;2022-09-14T01:05:07;21.20;62.10
7234;DHT22;3658;47.992;10.158;2022-09-14T01:08:01;21.20;62.00
7234;DHT22;3658;47.992;10.158;2022-09-14T01:10:42;21.20;62.00
7234;DHT22;3658;47.992;10.158;2022-09-14T01:13:22;21.20;62.00
7234;DHT22;3658;47.992;10.158;2022-09-14T01:15:56;21.20;62.00
7234;DHT22;3658;47.992;10.158;2022-09-14T01:18:27;21.20;62.00
7234;DHT22;3658;47.992;10.158;2022-09-14T01:21:00;21.20;62.00
7234;DHT22;3658;47.992;10.158;2022-09-14T01:23:35;21.20;61.90
7234;DHT22;3658;47.992;10.158;2022-09-14T01:26:30;21.20;61.90
7234;DHT22;3658;47.992;10.158;2022-09-14T01:29:07;21.20;61.90
7234;DHT22;3658;47.992;10.158;2022-09-14T01:31:45;21.20;61.90
7234;DHT22;3658;47.992;10.158;2022-09-14T01:34:15;21.20;61.90
7234;DHT22;3658;47.992;10.158;2022-09-14T01:36:48;21.20;61.90
7234;DHT22;3658;47.992;10.158;2022-09-14T01:39:17;21.20;61.80
7234;DHT22;3658;47.992;10.158;2022-09-14T01:41:46;21.20;61.80
7234;DHT22;3658;47.992;10.158;2022-09-14T01:44:18;21.10;61.70
7234;DHT22;3658;47.992;10.158;2022-09-14T01:46:49;21.20;61.80
7234;DHT22;3658;47.992;10.158;2022-09-14T01:49:22;21.20;61.80
7234;DHT22;3658;47.992;10.158;2022-09-14T01:51:54;21.20;61.80
7234;DHT22;3658;47.992;10.158;2022-09-14T01:54:26;21.20;61.70
7234;DHT22;3658;47.992;10.158;2022-09-14T01:57:00;21.20;61.70
7234;DHT22;3658;47.992;10.158;2022-09-14T01:59:31;21.20;61.70
7234;DHT22;3658;47.992;10.158;2022-09-14T02:02:03;21.20;61.70
7234;DHT22;3658;47.992;10.158;2022-09-14T02:04:35;21.20;61.70
7234;DHT22;3658;47.992;10.158;2022-09-14T02:07:05;21.20;61.70
7234;DHT22;3658;47.992;10.158;2022-09-14T02:09:32;21.20;61.70
7234;DHT22;3658;47.992;10.158;2022-09-14T02:11:59;21.20;61.70
7234;DHT22;3658;47.992;10.158;2022-09-14T02:14:27;21.20;61.60
7234;DHT22;3658;47.992;10.158;2022-09-14T02:16:56;21.20;61.70
7234;DHT22;3658;47.992;10.158;2022-09-14T02:19:25;21.20;61.60
7234;DHT22;3658;47.992;10.158;2022-09-14T02:21:54;21.20;61.60
7234;DHT22;3658;47.992;10.158;2022-09-14T02:24:21;21.20;61.60
7234;DHT22;3658;47.992;10.158;2022-09-14T02:26:50;21.20;61.60
7234;DHT22;3658;47.992;10.158;2022-09-14T02:29:17;21.20;61.60
7234;DHT22;3658;47.992;10.158;2022-09-14T02:31:59;21.20;61.60
7234;DHT22;3658;47.992;10.158;2022-09-14T02:34:36;21.20;61.60
7234;DHT22;3658;47.992;10.158;2022-09-14T02:37:10;21.20;61.60
7234;DHT22;3658;47.992;10.158;2022-09-14T02:39:45;21.20;61.50
7234;DHT22;3658;47.992;10.158;2022-09-14T02:42:21;21.20;61.50
7234;DHT22;3658;47.992;10.158;2022-09-14T02:44:59;21.20;61.60
7234;DHT22;3658;47.992;10.158;2022-09-14T02:47:33;21.20;61.50
7234;DHT22;3658;47.992;10.158;2022-09-14T02:50:09;21.10;61.40
7234;DHT22;3658;47.992;10.158;2022-09-14T02:52:42;21.20;61.50
7234;DHT22;3658;47.992;10.158;2022-09-14T02:55:13;21.10;61.40
7234;DHT22;3658;47.992;10.158;2022-09-14T02:57:59;21.20;61.50
7234;DHT22;3658;47.992;10.158;2022-09-14T03:00:27;21.10;61.40
7234;DHT22;3658;47.992;10.158;2022-09-14T03:02:56;21.20;61.50
7234;DHT22;3658;47.992;10.158;2022-09-14T03:05:24;21.20;61.50
7234;DHT22;3658;47.992;10.158;2022-09-14T03:07:51;21.10;61.40
7234;DHT22;3658;47.992;10.158;2022-09-14T03:10:18;21.20;61.50
7234;DHT22;3658;47.992;10.158;2022-09-14T03:12:45;21.20;62.20
7234;DHT22;3658;47.992;10.158;2022-09-14T03:15:12;21.10;61.30
7234;DHT22;3658;47.992;10.158;2022-09-14T03:17:38;21.20;61.40
7234;DHT22;3658;47.992;10.158;2022-09-14T03:20:08;21.20;61.40
7234;DHT22;3658;47.992;10.158;2022-09-14T03:22:36;21.10;61.30
7234;DHT22;3658;47.992;10.158;2022-09-14T03:25:03;21.10;61.30
7234;DHT22;3658;47.992;10.158;2022-09-14T03:27:30;21.10;61.30
7234;DHT22;3658;47.992;10.158;2022-09-14T03:29:57;21.20;61.40
7234;DHT22;3658;47.992;10.158;2022-09-14T03:32:24;21.20;61.40
7234;DHT22;3658;47.992;10.158;2022-09-14T03:34:51;21.10;61.30
7234;DHT22;3658;47.992;10.158;2022-09-14T03:37:19;21.20;62.10
7234;DHT22;3658;47.992;10.158;2022-09-14T03:39:46;21.10;61.30
7234;DHT22;3658;47.992;10.158;2022-09-14T03:42:13;21.20;61.40
7234;DHT22;3658;47.992;10.158;2022-09-14T03:44:40;21.20;62.10
7234;DHT22;3658;47.992;10.158;2022-09-14T03:47:07;21.10;61.20
7234;DHT22;3658;47.992;10.158;2022-09-14T03:49:34;21.20;61.40
7234;DHT22;3658;47.992;10.158;2022-09-14T03:52:01;21.20;61.30
7234;DHT22;3658;47.992;10.158;2022-09-14T03:54:30;21.20;61.30
7234;DHT22;3658;47.992;10.158;2022-09-14T03:56:57;21.10;61.20
7234;DHT22;3658;47.992;10.158;2022-09-14T03:59:24;21.10;61.20
7234;DHT22;3658;47.992;10.158;2022-09-14T04:01:51;21.20;61.30
7234;DHT22;3658;47.992;10.158;2022-09-14T04:04:18;21.10;61.20
7234;DHT22;3658;47.992;10.158;2022-09-14T04:06:45;21.10;61.20
7234;DHT22;3658;47.992;10.158;2022-09-14T04:09:12;21.10;61.20
7234;DHT22;3658;47.992;10.158;2022-09-14T04:11:40;21.10;61.20
7234;DHT22;3658;47.992;10.158;2022-09-14T04:14:07;21.10;61.20
7234;DHT22;3658;47.992;10.158;2022-09-14T04:16:34;21.10;61.20
7234;DHT22;3658;47.992;10.158;2022-09-14T04:19:01;21.20;61.30
7234;DHT22;3658;47.992;10.158;2022-09-14T04:21:28;21.10;61.20
7234;DHT22;3658;47.992;10.158;2022-09-14T04:23:56;21.10;61.20
7234;DHT22;3658;47.992;10.158;2022-09-14T04:26:25;21.10;61.20
7234;DHT22;3658;47.992;10.158;2022-09-14T04:28:55;21.10;61.20
7234;DHT22;3658;47.992;10.158;2022-09-14T04:31:22;21.10;61.20
7234;DHT22;3658;47.992;10.158;2022-09-14T04:33:50;21.10;61.20
7234;DHT22;3658;47.992;10.158;2022-09-14T04:36:19;21.10;61.10
7234;DHT22;3658;47.992;10.158;2022-09-14T04:38:47;21.20;61.20
7234;DHT22;3658;47.992;10.158;2022-09-14T04:41:15;21.10;61.20
7234;DHT22;3658;47.992;10.158;2022-09-14T04:43:44;21.20;61.30
7234;DHT22;3658;47.992;10.158;2022-09-14T04:46:14;21.10;61.20
7234;DHT22;3658;47.992;10.158;2022-09-14T04:48:42;21.10;61.20
7234;DHT22;3658;47.992;10.158;2022-09-14T04:51:11;21.20;61.20
7234;DHT22;3658;47.992;10.158;2022-09-14T04:53:41;21.10;61.10
7234;DHT22;3658;47.992;10.158;2022-09-14T04:56:10;21.20;61.20
7234;DHT22;3658;47.992;10.158;2022-09-14T04:58:41;21.10;61.10
7234;DHT22;3658;47.992;10.158;2022-09-14T05:01:09;21.10;61.10
7234;DHT22;3658;47.992;10.158;2022-09-14T05:03:39;21.10;61.10
7234;DHT22;3658;47.992;10.158;2022-09-14T05:06:08;21.20;61.20
7234;DHT22;3658;47.992;10.158;2022-09-14T05:08:36;21.10;61.10
7234;DHT22;3658;47.992;10.158;2022-09-14T05:11:03;21.10;61.10
7234;DHT22;3658;47.992;10.158;2022-09-14T05:13:31;21.20;62.10
7234;DHT22;3658;47.992;10.158;2022-09-14T05:16:04;21.20;63.10
7234;DHT22;3658;47.992;10.158;2022-09-14T05:18:31;21.20;63.90
7234;DHT22;3658;47.992;10.158;2022-09-14T05:21:02;21.20;64.20
7234;DHT22;3658;47.992;10.158;2022-09-14T05:23:30;21.20;64.30
7234;DHT22;3658;47.992;10.158;2022-09-14T05:25:57;21.20;64.40
7234;DHT22;3658;47.992;10.158;2022-09-14T05:28:25;21.20;64.60
7234;DHT22;3658;47.992;10.158;2022-09-14T05:30:52;21.20;64.60
7234;DHT22;3658;47.992;10.158;2022-09-14T05:33:20;21.20;64.70
7234;DHT22;3658;47.992;10.158;2022-09-14T05:35:48;21.20;64.70
7234;DHT22;3658;47.992;10.158;2022-09-14T05:38:17;21.20;64.70
7234;DHT22;3658;47.992;10.158;2022-09-14T05:40:44;21.20;64.60
7234;DHT22;3658;47.992;10.158;2022-09-14T05:43:11;21.20;64.60
7234;DHT22;3658;47.992;10.158;2022-09-14T05:45:37;21.20;64.60
7234;DHT22;3658;47.992;10.158;2022-09-14T05:48:04;21.20;64.60
7234;DHT22;3658;47.992;10.158;2022-09-14T05:50:32;21.20;64.60
7234;DHT22;3658;47.992;10.158;2022-09-14T05:52:59;21.20;64.40
7234;DHT22;3658;47.992;10.158;2022-09-14T05:55:27;21.20;64.30
7234;DHT22;3658;47.992;10.158;2022-09-14T05:57:54;21.20;64.20
7234;DHT22;3658;47.992;10.158;2022-09-14T06:00:21;21.20;64.10
7234;DHT22;3658;47.992;10.158;2022-09-14T06:02:49;21.20;64.00
7234;DHT22;3658;47.992;10.158;2022-09-14T06:05:16;21.20;64.00
7234;DHT22;3658;47.992;10.158;2022-09-14T06:07:43;21.20;64.00
7234;DHT22;3658;47.992;10.158;2022-09-14T06:10:11;21.20;63.90
7234;DHT22;3658;47.992;10.158;2022-09-14T06:12:39;21.20;63.90
7234;DHT22;3658;47.992;10.158;2022-09-14T06:15:07;21.20;63.90
7234;DHT22;3658;47.992;10.158;2022-09-14T06:17:35;21.20;63.80
7234;DHT22;3658;47.992;10.158;2022-09-14T06:20:03;21.20;63.70
7234;DHT22;3658;47.992;10.158;2022-09-14T06:22:31;21.20;63.70
7234;DHT22;3658;47.992;10.158;2022-09-14T06:24:59;21.20;63.70
7234;DHT22;3658;47.992;10.158;2022-09-14T06:27:26;21.20;63.70
7234;DHT22;3658;47.992;10.158;2022-09-14T06:29:54;21.20;64.60
7234;DHT22;3658;47.992;10.158;2022-09-14T06:32:21;21.30;65.30
7234;DHT22;3658;47.992;10.158;2022-09-14T06:34:48;21.30;65.60
7234;DHT22;3658;47.992;10.158;2022-09-14T06:37:16;21.30;65.80
7234;DHT22;3658;47.992;10.158;2022-09-14T06:39:43;21.30;65.80
7234;DHT22;3658;47.992;10.158;2022-09-14T06:42:10;21.30;65.90
7234;DHT22;3658;47.992;10.158;2022-09-14T06:44:37;21.30;65.80
7234;DHT22;3658;47.992;10.158;2022-09-14T06:47:05;21.40;66.00
7234;DHT22;3658;47.992;10.158;2022-09-14T06:49:32;21.40;65.80
7234;DHT22;3658;47.992;10.158;2022-09-14T06:51:59;21.40;65.40
7234;DHT22;3658;47.992;10.158;2022-09-14T06:54:26;21.40;65.20
7234;DHT22;3658;47.992;10.158;2022-09-14T06:56:53;21.50;65.00
7234;DHT22;3658;47.992;10.158;2022-09-14T06:59:21;21.50;64.50
7234;DHT22;3658;47.992;10.158;2022-09-14T07:01:48;21.50;64.30
7234;DHT22;3658;47.992;10.158;2022-09-14T07:04:17;21.50;64.20
7234;DHT22;3658;47.992;10.158;2022-09-14T07:06:45;21.50;64.10
7234;DHT22;3658;47.992;10.158;2022-09-14T07:09:13;21.50;64.10
7234;DHT22;3658;47.992;10.158;2022-09-14T07:11:41;21.60;64.20
7234;DHT22;3658;47.992;10.158;2022-09-14T07:14:08;21.60;64.10
7234;DHT22;3658;47.992;10.158;2022-09-14T07:16:37;21.60;64.10
7234;DHT22;3658;47.992;10.158;2022-09-14T07:19:06;21.60;64.00
7234;DHT22;3658;47.992;10.158;2022-09-14T07:21:35;21.60;64.20
7234;DHT22;3658;47.992;10.158;2022-09-14T07:24:02;21.60;64.20
7234;DHT22;3658;47.992;10.158;2022-09-14T07:26:31;21.60;64.40
7234;DHT22;3658;47.992;10.158;2022-09-14T07:29:02;21.60;64.40
7234;DHT22;3658;47.992;10.158;2022-09-14T07:31:33;21.60;64.60
7234;DHT22;3658;47.992;10.158;2022-09-14T07:34:01;21.60;64.40
7234;DHT22;3658;47.992;10.158;2022-09-14T07:36:29;21.60;64.40
7234;DHT22;3658;47.992;10.158;2022-09-14T07:38:58;21.60;64.50
7234;DHT22;3658;47.992;10.158;2022-09-14T07:41:26;21.60;64.60
7234;DHT22;3658;47.992;10.158;2022-09-14T07:43:56;21.60;64.70
7234;DHT22;3658;47.992;10.158;2022-09-14T07:46:25;21.60;64.60
7234;DHT22;3658;47.992;10.158;2022-09-14T07:48:54;21.60;64.50
7234;DHT22;3658;47.992;10.158;2022-09-14T07:51:21;21.60;64.60
7234;DHT22;3658;47.992;10.158;2022-09-14T07:53:48;21.60;64.40
7234;DHT22;3658;47.992;10.158;2022-09-14T07:56:17;21.60;64.40
7234;DHT22;3658;47.992;10.158;2022-09-14T07:58:44;21.70;64.50
7234;DHT22;3658;47.992;10.158;2022-09-14T08:01:16;21.70;64.40
7234;DHT22;3658;47.992;10.158;2022-09-14T08:03:44;21.70;64.40
7234;DHT22;3658;47.992;10.158;2022-09-14T08:06:13;21.70;64.40
7234;DHT22;3658;47.992;10.158;2022-09-14T08:08:43;21.70;64.40
7234;DHT22;3658;47.992;10.158;2022-09-14T08:11:12;21.70;64.40
7234;DHT22;3658;47.992;10.158;2022-09-14T08:13:43;21.70;64.30
7234;DHT22;3658;47.992;10.158;2022-09-14T08:16:11;21.70;64.20
7234;DHT22;3658;47.992;10.158;2022-09-14T08:18:38;21.70;64.20
7234;DHT22;3658;47.992;10.158;2022-09-14T08:21:07;21.60;64.10
7234;DHT22;3658;47.992;10.158;2022-09-14T08:23:35;21.60;64.00
7234;DHT22;3658;47.992;10.158;2022-09-14T08:26:02;21.60;64.00
7234;DHT22;3658;47.992;10.158;2022-09-14T08:28:29;21.70;64.20
7234;DHT22;3658;47.992;10.158;2022-09-14T08:31:03;21.70;64.50
7234;DHT22;3658;47.992;10.158;2022-09-14T08:33:31;21.70;64.50
7234;DHT22;3658;47.992;10.158;2022-09-14T08:35:58;21.70;64.50
7234;DHT22;3658;47.992;10.158;2022-09-14T08:38:26;21.70;64.50
7234;DHT22;3658;47.992;10.158;2022-09-14T08:40:53;21.70;64.30
7234;DHT22;3658;47.992;10.158;2022-09-14T08:43:22;21.70;64.20
7234;DHT22;3658;47.992;10.158;2022-09-14T08:45:56;21.70;64.10
7234;DHT22;3658;47.992;10.158;2022-09-14T08:48:32;21.60;64.00
7234;DHT22;3658;47.992;10.158;2022-09-14T08:51:02;21.60;64.00
7234;DHT22;3658;47.992;10.158;2022-09-14T08:53:29;21.70;64.10
7234;DHT22;3658;47.992;10.158;2022-09-14T08:55:59;21.70;64.10
7234;DHT22;3658;47.992;10.158;2022-09-14T08:58:39;21.70;64.00
7234;DHT22;3658;47.992;10.158;2022-09-14T09:01:16;21.70;64.10
7234;DHT22;3658;47.992;10.158;2022-09-14T09:03:58;21.70;64.10
7234;DHT22;3658;47.992;10.158;2022-09-14T09:06:33;21.70;64.10
7234;DHT22;3658;47.992;10.158;2022-09-14T09:09:10;21.70;64.30
7234;DHT22;3658;47.992;10.158;2022-09-14T09:11:41;21.80;64.30
7234;DHT22;3658;47.992;10.158;2022-09-14T09:14:17;21.80;64.30
7234;DHT22;3658;47.992;10.158;2022-09-14T09:16:48;21.80;64.40
7234;DHT22;3658;47.992;10.158;2022-09-14T09:19:22;21.70;64.30
7234;DHT22;3658;47.992;10.158;2022-09-14T09:21:51;21.80;64.40
7234;DHT22;3658;47.992;10.158;2022-09-14T09:24:25;21.80;64.40
7234;DHT22;3658;47.992;10.158;2022-09-14T09:26:53;21.80;64.40
7234;DHT22;3658;47.992;10.158;2022-09-14T09:29:20;21.80;64.50
7234;DHT22;3658;47.992;10.158;2022-09-14T09:31:50;21.80;64.50
7234;DHT22;3658;47.992;10.158;2022-09-14T09:34:24;21.80;64.50
7234;DHT22;3658;47.992;10.158;2022-09-14T09:36:51;21.80;64.50
7234;DHT22;3658;47.992;10.158;2022-09-14T09:39:21;21.80;64.60
7234;DHT22;3658;47.992;10.158;2022-09-14T09:41:52;21.80;64.60
7234;DHT22;3658;47.992;10.158;2022-09-14T09:44:20;21.80;64.80
7234;DHT22;3658;47.992;10.158;2022-09-14T09:46:50;21.80;64.80
7234;DHT22;3658;47.992;10.158;2022-09-14T09:49:22;21.80;64.80
7234;DHT22;3658;47.992;10.158;2022-09-14T09:51:51;21.80;64.90
7234;DHT22;3658;47.992;10.158;2022-09-14T09:54:24;21.80;64.80
7234;DHT22;3658;47.992;10.158;2022-09-14T09:56:55;21.90;64.90
7234;DHT22;3658;47.992;10.158;2022-09-14T09:59:28;21.90;65.00
7234;DHT22;3658;47.992;10.158;2022-09-14T10:01:56;21.90;64.80
7234;DHT22;3658;47.992;10.158;2022-09-14T10:04:55;21.90;64.80
7234;DHT22;3658;47.992;10.158;2022-09-14T10:07:22;21.80;64.70
7234;DHT22;3658;47.992;10.158;2022-09-14T10:09:57;21.90;64.80
7234;DHT22;3658;47.992;10.158;2022-09-14T10:12:25;21.80;65.10
7234;DHT22;3658;47.992;10.158;2022-09-14T10:15:05;21.80;65.50
7234;DHT22;3658;47.992;10.158;2022-09-14T10:17:32;21.80;65.60
7234;DHT22;3658;47.992;10.158;2022-09-14T10:20:01;21.80;65.60
7234;DHT22;3658;47.992;10.158;2022-09-14T10:22:30;21.80;65.70
7234;DHT22;3658;47.992;10.158;2022-09-14T10:24:59;21.70;65.50
7234;DHT22;3658;47.992;10.158;2022-09-14T10:27:40;21.70;65.60
7234;DHT22;3658;47.992;10.158;2022-09-14T10:30:15;21.70;65.60
7234;DHT22;3658;47.992;10.158;2022-09-14T10:32:46;21.70;65.70
7234;DHT22;3658;47.992;10.158;2022-09-14T10:35:15;21.70;66.20
7234;DHT22;3658;47.992;10.158;2022-09-14T10:37:55;21.70;66.60
7234;DHT22;3658;47.992;10.158;2022-09-14T10:40:29;21.70;66.40
7234;DHT22;3658;47.992;10.158;2022-09-14T10:43:08;21.70;66.80
7234;DHT22;3658;47.992;10.158;2022-09-14T10:45:39;21.80;68.10
7234;DHT22;3658;47.992;10.158;2022-09-14T10:48:21;21.80;68.10
7234;DHT22;3658;47.992;10.158;2022-09-14T10:50:58;21.80;68.50
7234;DHT22;3658;47.992;10.158;2022-09-14T10:53:43;21.80;68.50
7234;DHT22;3658;47.992;10.158;2022-09-14T10:56:18;21.80;68.40
7234;DHT22;3658;47.992;10.158;2022-09-14T10:59:08;21.80;68.50
7234;DHT22;3658;47.992;10.158;2022-09-14T11:01:59;21.80;68.90
7234;DHT22;3658;47.992;10.158;2022-09-14T11:04:50;21.80;68.80
7234;DHT22;3658;47.992;10.158;2022-09-14T11:07:29;21.80;68.70
7234;DHT22;3658;47.992;10.158;2022-09-14T11:10:07;21.80;68.90
7234;DHT22;3658;47.992;10.158;2022-09-14T11:12:44;21.80;68.90
7234;DHT22;3658;47.992;10.158;2022-09-14T11:15:20;21.80;68.90
7234;DHT22;3658;47.992;10.158;2022-09-14T11:18:03;21.80;68.60
7234;DHT22;3658;47.992;10.158;2022-09-14T11:20:41;21.80;68.50
7234;DHT22;3658;47.992;10.158;2022-09-14T11:23:20;21.80;68.60
7234;DHT22;3658;47.992;10.158;2022-09-14T11:25:55;21.80;68.50
7234;DHT22;3658;47.992;10.158;2022-09-14T11:28:26;21.80;68.40
7234;DHT22;3658;47.992;10.158;2022-09-14T11:30:59;21.80;68.20
7234;DHT22;3658;47.992;10.158;2022-09-14T11:33:32;21.80;68.10
7234;DHT22;3658;47.992;10.158;2022-09-14T11:36:07;21.70;67.80
7234;DHT22;3658;47.992;10.158;2022-09-14T11:38:45;21.70;67.70
7234;DHT22;3658;47.992;10.158;2022-09-14T11:41:21;21.70;67.60
7234;DHT22;3658;47.992;10.158;2022-09-14T11:43:52;21.70;67.50
7234;DHT22;3658;47.992;10.158;2022-09-14T11:46:24;21.70;67.40
7234;DHT22;3658;47.992;10.158;2022-09-14T11:48:58;21.70;67.30
7234;DHT22;3658;47.992;10.158;2022-09-14T11:51:30;21.70;67.20
7234;DHT22;3658;47.992;10.158;2022-09-14T11:54:00;21.70;67.20
7234;DHT22;3658;47.992;10.158;2022-09-14T11:56:29;21.70;67.60
7234;DHT22;3658;47.992;10.158;2022-09-14T11:58:58;21.70;67.50
7234;DHT22;3658;47.992;10.158;2022-09-14T12:01:28;21.70;67.50
7234;DHT22;3658;47.992;10.158;2022-09-14T12:04:11;21.70;67.30
7234;DHT22;3658;47.992;10.158;2022-09-14T12:06:54;21.70;67.20
7234;DHT22;3658;47.992;10.158;2022-09-14T12:09:51;21.70;67.20
7234;DHT22;3658;47.992;10.158;2022-09-14T12:12:43;21.70;67.50
7234;DHT22;3658;47.992;10.158;2022-09-14T12:15:19;21.70;67.20
7234;DHT22;3658;47.992;10.158;2022-09-14T12:17:47;21.70;67.30
7234;DHT22;3658;47.992;10.158;2022-09-14T12:20:39;21.70;67.10
7234;DHT22;3658;47.992;10.158;2022-09-14T12:23:29;21.70;67.10
7234;DHT22;3658;47.992;10.158;2022-09-14T12:26:11;21.70;67.50
7234;DHT22;3658;47.992;10.158;2022-09-14T12:28:43;21.70;67.30
7234;DHT22;3658;47.992;10.158;2022-09-14T12:31:29;21.70;67.10
7234;DHT22;3658;47.992;10.158;2022-09-14T12:40:22;21.70;66.90
7234;DHT22;3658;47.992;10.158;2022-09-14T12:46:38;21.70;66.90
7234;DHT22;3658;47.992;10.158;2022-09-14T12:49:30;21.70;66.80
7234;DHT22;3658;47.992;10.158;2022-09-14T12:52:11;21.70;66.60
7234;DHT22;3658;47.992;10.158;2022-09-14T12:54:50;21.70;66.50
7234;DHT22;3658;47.992;10.158;2022-09-14T12:57:32;21.70;66.40
7234;DHT22;3658;47.992;10.158;2022-09-14T13:00:10;21.70;66.30
7234;DHT22;3658;47.992;10.158;2022-09-14T13:05:43;21.70;66.20
7234;DHT22;3658;47.992;10.158;2022-09-14T13:08:11;21.70;66.30
7234;DHT22;3658;47.992;10.158;2022-09-14T13:10:44;21.70;66.20
7234;DHT22;3658;47.992;10.158;2022-09-14T13:13:15;21.70;66.20
7234;DHT22;3658;47.992;10.158;2022-09-14T13:15:50;21.70;66.40
7234;DHT22;3658;47.992;10.158;2022-09-14T13:18:31;21.70;66.30
7234;DHT22;3658;47.992;10.158;2022-09-14T13:21:00;21.70;66.30
7234;DHT22;3658;47.992;10.158;2022-09-14T13:23:29;21.70;67.00
7234;DHT22;3658;47.992;10.158;2022-09-14T13:25:57;21.80;67.40
7234;DHT22;3658;47.992;10.158;2022-09-14T13:28:27;21.90;67.50
7234;DHT22;3658;47.992;10.158;2022-09-14T13:30:58;21.90;67.30
7234;DHT22;3658;47.992;10.158;2022-09-14T13:33:26;21.90;67.70
7234;DHT22;3658;47.992;10.158;2022-09-14T13:35:55;21.90;68.20
7234;DHT22;3658;47.992;10.158;2022-09-14T13:38:25;21.90;68.60
7234;DHT22;3658;47.992;10.158;2022-09-14T13:40:54;21.90;68.50
7234;DHT22;3658;47.992;10.158;2022-09-14T13:43:22;21.90;68.30
7234;DHT22;3658;47.992;10.158;2022-09-14T13:45:50;21.90;68.10
7234;DHT22;3658;47.992;10.158;2022-09-14T13:48:19;21.90;68.00
7234;DHT22;3658;47.992;10.158;2022-09-14T13:50:49;21.90;68.00
7234;DHT22;3658;47.992;10.158;2022-09-14T13:53:37;21.90;67.90
7234;DHT22;3658;47.992;10.158;2022-09-14T13:56:22;21.90;67.80
7234;DHT22;3658;47.992;10.158;2022-09-14T13:59:17;21.90;67.40
7234;DHT22;3658;47.992;10.158;2022-09-14T14:01:56;21.90;67.70
7234;DHT22;3658;47.992;10.158;2022-09-14T14:04:31;22.00;67.90
7234;DHT22;3658;47.992;10.158;2022-09-14T14:07:05;22.00;67.90
7234;DHT22;3658;47.992;10.158;2022-09-14T14:09:40;22.00;68.00
7234;DHT22;3658;47.992;10.158;2022-09-14T14:12:09;22.00;67.90
7234;DHT22;3658;47.992;10.158;2022-09-14T14:14:37;22.00;67.80
7234;DHT22;3658;47.992;10.158;2022-09-14T14:17:31;22.00;67.80
7234;DHT22;3658;47.992;10.158;2022-09-14T14:20:30;22.00;67.80
7234;DHT22;3658;47.992;10.158;2022-09-14T14:23:01;22.00;67.80
7234;DHT22;3658;47.992;10.158;2022-09-14T14:25:31;22.00;67.70
7234;DHT22;3658;47.992;10.158;2022-09-14T14:28:00;22.00;67.70
7234;DHT22;3658;47.992;10.158;2022-09-14T14:30:28;22.00;67.60
7234;DHT22;3658;47.992;10.158;2022-09-14T14:32:57;22.00;67.60
7234;DHT22;3658;47.992;10.158;2022-09-14T14:35:27;22.00;67.50
7234;DHT22;3658;47.992;10.158;2022-09-14T14:37:55;22.00;67.60
7234;DHT22;3658;47.992;10.158;2022-09-14T14:40:23;22.00;67.60
7234;DHT22;3658;47.992;10.158;2022-09-14T14:42:52;22.00;67.50
7234;DHT22;3658;47.992;10.158;2022-09-14T14:45:21;22.00;68.10
7234;DHT22;3658;47.992;10.158;2022-09-14T14:47:51;22.00;67.40
7234;DHT22;3658;47.992;10.158;2022-09-14T14:50:21;22.00;67.50
7234;DHT22;3658;47.992;10.158;2022-09-14T14:52:49;22.00;67.40
7234;DHT22;3658;47.992;10.158;2022-09-14T14:55:17;22.00;67.30
7234;DHT22;3658;47.992;10.158;2022-09-14T14:57:44;22.00;67.30
7234;DHT22;3658;47.992;10.158;2022-09-14T15:00:14;22.00;67.30
7234;DHT22;3658;47.992;10.158;2022-09-14T15:02:42;22.00;67.20
7234;DHT22;3658;47.992;10.158;2022-09-14T15:05:10;22.00;67.20
7234;DHT22;3658;47.992;10.158;2022-09-14T15:07:37;22.00;67.20
7234;DHT22;3658;47.992;10.158;2022-09-14T15:10:07;22.00;67.10
7234;DHT22;3658;47.992;10.158;2022-09-14T15:12:35;22.00;67.40
7234;DHT22;3658;47.992;10.158;2022-09-14T15:15:02;22.00;67.10
7234;DHT22;3658;47.992;10.158;2022-09-14T15:17:29;22.00;67.00
7234;DHT22;3658;47.992;10.158;2022-09-14T15:19:56;22.00;66.90
7234;DHT22;3658;47.992;10.158;2022-09-14T15:22:23;22.00;66.80
7234;DHT22;3658;47.992;10.158;2022-09-14T15:24:50;22.00;66.80
7234;DHT22;3658;47.992;10.158;2022-09-14T15:27:19;22.00;66.80
7234;DHT22;3658;47.992;10.158;2022-09-14T15:29:46;22.00;66.80
7234;DHT22;3658;47.992;10.158;2022-09-14T15:32:13;22.00;66.80
7234;DHT22;3658;47.992;10.158;2022-09-14T15:34:40;22.00;66.80
7234;DHT22;3658;47.992;10.158;2022-09-14T15:37:08;22.00;66.80
7234;DHT22;3658;47.992;10.158;2022-09-14T15:39:35;22.00;66.80
7234;DHT22;3658;47.992;10.158;2022-09-14T15:42:03;22.00;66.70
7234;DHT22;3658;47.992;10.158;2022-09-14T15:44:31;22.00;66.80
7234;DHT22;3658;47.992;10.158;2022-09-14T15:46:58;22.10;66.90
7234;DHT22;3658;47.992;10.158;2022-09-14T15:49:26;22.00;66.70
7234;DHT22;3658;47.992;10.158;2022-09-14T15:51:54;22.00;66.70
7234;DHT22;3658;47.992;10.158;2022-09-14T15:54:23;22.00;66.70
7234;DHT22;3658;47.992;10.158;2022-09-14T15:56:53;22.00;66.70
7234;DHT22;3658;47.992;10.158;2022-09-14T15:59:21;22.00;66.70
7234;DHT22;3658;47.992;10.158;2022-09-14T16:01:49;22.00;66.50
7234;DHT22;3658;47.992;10.158;2022-09-14T16:04:17;21.90;66.30
7234;DHT22;3658;47.992;10.158;2022-09-14T16:06:44;21.90;66.20
7234;DHT22;3658;47.992;10.158;2022-09-14T16:09:13;21.90;66.20
7234;DHT22;3658;47.992;10.158;2022-09-14T16:11:40;21.90;66.10
7234;DHT22;3658;47.992;10.158;2022-09-14T16:14:09;21.90;66.00
7234;DHT22;3658;47.992;10.158;2022-09-14T16:16:37;21.90;65.90
7234;DHT22;3658;47.992;10.158;2022-09-14T16:19:06;21.90;66.70
7234;DHT22;3658;47.992;10.158;2022-09-14T16:21:33;21.90;65.80